createdAt,value
2022-12-19T00:01:54.947Z,1.27
2022-12-19T00:04:22.267Z,1.36
2022-12-19T00:06:49.456Z,1.40
2022-12-19T00:09:16.388Z,1.31
2022-12-19T00:11:43.460Z,1.15
2022-12-19T00:14:11.744Z,1.21
2022-12-19T00:16:39.156Z,1.30
2022-12-19T00:19:06.544Z,1.24
2022-12-19T00:21:35.032Z,1.23
2022-12-19T00:24:18.058Z,1.10
2022-12-19T00:26:48.162Z,1.05
2022-12-19T00:29:15.394Z,1.11
2022-12-19T00:31:44.775Z,0.99
2022-12-19T00:34:15.022Z,0.99
2022-12-19T00:36:42.127Z,1.04
2022-12-19T00:39:10.544Z,1.04
2022-12-19T00:41:41.848Z,1.05
2022-12-19T00:44:13.176Z,1.06
2022-12-19T00:46:41.736Z,1.05
2022-12-19T00:49:09.377Z,1.04
2022-12-19T00:51:37.686Z,1.16
2022-12-19T00:54:10.818Z,1.17
2022-12-19T00:56:38.993Z,0.98
2022-12-19T00:59:10.742Z,1.11
2022-12-19T01:01:41.655Z,1.12
2022-12-19T01:04:30.318Z,1.22
2022-12-19T01:07:02.407Z,1.08
2022-12-19T01:09:35.041Z,1.20
2022-12-19T01:12:24.378Z,1.23
2022-12-19T01:14:56.405Z,1.21
2022-12-19T01:17:30.750Z,1.25
2022-12-19T01:19:57.644Z,1.40
2022-12-19T01:22:24.568Z,1.27
2022-12-19T01:24:51.567Z,1.45
2022-12-19T01:27:18.495Z,1.51
2022-12-19T01:29:52.747Z,1.38
2022-12-19T01:32:21.093Z,1.56
2022-12-19T01:34:48.283Z,1.63
2022-12-19T01:37:15.507Z,1.54
2022-12-19T01:39:43.960Z,1.48
2022-12-19T01:42:23.444Z,1.50
2022-12-19T01:45:17.705Z,1.05
2022-12-19T01:48:01.407Z,1.36
2022-12-19T01:50:53.571Z,1.35
2022-12-19T01:54:00.546Z,1.30
2022-12-19T01:56:36.279Z,0.99
2022-12-19T01:59:08.046Z,0.91
2022-12-19T02:01:51.154Z,0.95
2022-12-19T02:04:26.224Z,0.90
2022-12-19T02:07:06.315Z,0.81
2022-12-19T02:09:45.186Z,0.80
2022-12-19T02:12:13.745Z,0.61
2022-12-19T02:14:42.162Z,0.73
2022-12-19T02:17:35.173Z,0.69
2022-12-19T02:20:22.062Z,0.81
2022-12-19T02:22:58.288Z,0.89
2022-12-19T02:26:03.015Z,0.84
2022-12-19T02:28:33.442Z,0.78
2022-12-19T02:31:16.629Z,0.73
2022-12-19T02:33:56.405Z,0.76
2022-12-19T02:36:42.635Z,0.87
2022-12-19T02:39:14.480Z,1.01
2022-12-19T02:41:52.846Z,0.98
2022-12-19T02:44:30.851Z,0.99
2022-12-19T02:47:00.425Z,0.64
2022-12-19T02:49:33.682Z,0.84
2022-12-19T02:52:22.985Z,0.77
2022-12-19T02:54:55.513Z,0.61
2022-12-19T02:57:33.343Z,0.73
2022-12-19T03:00:08.124Z,0.76
2022-12-19T03:02:43.958Z,0.78
2022-12-19T03:05:31.103Z,0.91
2022-12-19T03:08:06.723Z,0.77
2022-12-19T03:10:34.282Z,0.81
2022-12-19T03:13:08.106Z,0.86
2022-12-19T03:15:38.569Z,0.90
2022-12-19T03:18:06.691Z,1.06
2022-12-19T03:21:20.214Z,1.16
2022-12-19T03:23:49.059Z,1.19
2022-12-19T03:26:20.187Z,1.18
2022-12-19T03:28:56.002Z,1.10
2022-12-19T03:31:27.749Z,1.08
2022-12-19T03:33:59.431Z,1.14
2022-12-19T03:36:37.407Z,1.17
2022-12-19T03:39:08.487Z,1.17
2022-12-19T03:41:56.481Z,1.13
2022-12-19T03:44:28.446Z,0.92
2022-12-19T03:47:03.557Z,0.95
2022-12-19T03:49:30.679Z,0.97
2022-12-19T03:52:23.936Z,0.93
2022-12-19T03:55:09.998Z,0.63
2022-12-19T03:57:44.199Z,0.94
2022-12-19T04:00:16.111Z,1.04
2022-12-19T04:02:48.170Z,0.95
2022-12-19T04:05:20.001Z,0.74
2022-12-19T04:07:48.680Z,0.84
2022-12-19T04:10:20.571Z,0.77
2022-12-19T04:12:53.530Z,0.84
2022-12-19T04:15:29.849Z,0.49
2022-12-19T04:17:59.182Z,0.43
2022-12-19T04:20:28.558Z,0.85
2022-12-19T04:23:05.230Z,0.67
2022-12-19T04:25:46.402Z,-0.22
2022-12-19T04:28:34.441Z,0.86
2022-12-19T04:31:02.726Z,0.95
2022-12-19T04:33:29.862Z,0.57
2022-12-19T04:35:57.212Z,0.93
2022-12-19T04:38:24.287Z,0.83
2022-12-19T04:40:51.535Z,0.68
2022-12-19T04:43:18.563Z,0.50
2022-12-19T04:45:45.915Z,0.55
2022-12-19T04:48:13.437Z,0.53
2022-12-19T04:50:40.593Z,0.65
2022-12-19T04:53:07.643Z,0.73
2022-12-19T04:55:34.984Z,0.88
2022-12-19T04:58:02.052Z,0.91
2022-12-19T05:00:29.317Z,0.92
2022-12-19T05:02:57.658Z,0.97
2022-12-19T05:05:25.035Z,1.10
2022-12-19T05:07:52.163Z,1.01
2022-12-19T05:10:19.637Z,0.82
2022-12-19T05:12:46.671Z,0.55
2022-12-19T05:15:13.599Z,1.08
2022-12-19T05:17:41.939Z,1.04
2022-12-19T05:20:09.767Z,0.89
2022-12-19T05:22:37.016Z,0.83
2022-12-19T05:25:04.571Z,0.50
2022-12-19T05:27:32.160Z,0.75
2022-12-19T05:29:59.289Z,0.68
2022-12-19T05:32:26.333Z,0.84
2022-12-19T05:34:53.437Z,0.42
2022-12-19T05:37:20.645Z,0.67
2022-12-19T05:39:47.795Z,0.40
2022-12-19T05:42:14.791Z,0.58
2022-12-19T05:44:41.843Z,0.70
2022-12-19T05:47:09.035Z,0.79
2022-12-19T05:49:36.120Z,0.60
2022-12-19T05:52:03.254Z,0.59
2022-12-19T05:54:30.613Z,0.50
2022-12-19T05:56:58.014Z,0.74
2022-12-19T05:59:26.628Z,0.55
2022-12-19T06:01:54.430Z,0.79
2022-12-19T06:04:21.744Z,1.06
2022-12-19T06:06:48.754Z,0.99
2022-12-19T06:09:16.295Z,0.86
2022-12-19T06:11:43.262Z,0.97
2022-12-19T06:14:10.331Z,1.08
2022-12-19T06:16:37.463Z,1.19
2022-12-19T06:19:04.793Z,1.31
2022-12-19T06:21:31.769Z,1.11
2022-12-19T06:23:59.086Z,1.05
2022-12-19T06:26:26.455Z,1.24
2022-12-19T06:28:55.874Z,1.52
2022-12-19T06:31:23.617Z,1.55
2022-12-19T06:33:52.541Z,1.52
2022-12-19T06:36:22.693Z,1.43
2022-12-19T06:38:50.951Z,1.57
2022-12-19T06:41:36.948Z,1.26
2022-12-19T06:44:06.567Z,1.02
2022-12-19T06:46:34.581Z,0.71
2022-12-19T06:49:02.558Z,1.49
2022-12-19T06:51:30.476Z,1.57
2022-12-19T06:53:57.939Z,1.66
2022-12-19T06:56:25.090Z,1.58
2022-12-19T06:58:53.306Z,1.47
2022-12-19T07:01:22.151Z,1.65
2022-12-19T07:03:50.056Z,1.55
2022-12-19T07:06:17.424Z,1.66
2022-12-19T07:08:44.415Z,1.76
2022-12-19T07:11:11.500Z,1.63
2022-12-19T07:13:38.437Z,1.96
2022-12-19T07:16:06.248Z,2.02
2022-12-19T07:18:37.144Z,1.93
2022-12-19T07:21:05.333Z,2.03
2022-12-19T07:23:33.819Z,2.11
2022-12-19T07:26:01.207Z,1.98
2022-12-19T07:28:28.520Z,1.74
2022-12-19T07:30:56.094Z,1.99
2022-12-19T07:33:23.313Z,2.00
2022-12-19T07:35:50.437Z,2.06
2022-12-19T07:38:17.834Z,2.10
2022-12-19T07:40:44.919Z,1.82
2022-12-19T07:43:11.897Z,2.08
2022-12-19T07:45:39.502Z,2.14
2022-12-19T07:48:08.229Z,2.16
2022-12-19T07:50:35.410Z,1.98
2022-12-19T07:53:02.613Z,2.14
2022-12-19T07:55:29.749Z,1.96
2022-12-19T07:57:57.156Z,2.23
2022-12-19T08:00:24.701Z,1.80
2022-12-19T08:02:51.929Z,2.15
2022-12-19T08:05:19.315Z,2.29
2022-12-19T08:07:46.482Z,2.23
2022-12-19T08:10:15.337Z,2.24
2022-12-19T08:12:42.663Z,2.31
2022-12-19T08:15:11.335Z,2.02
2022-12-19T08:17:41.373Z,2.21
2022-12-19T08:20:11.485Z,2.34
2022-12-19T08:22:38.553Z,2.44
2022-12-19T08:25:07.565Z,2.37
2022-12-19T08:27:35.005Z,2.43
2022-12-19T08:30:02.628Z,2.43
2022-12-19T08:32:31.809Z,2.29
2022-12-19T08:34:58.801Z,2.41
2022-12-19T08:37:25.757Z,2.30
2022-12-19T08:39:53.206Z,2.41
2022-12-19T08:42:20.088Z,2.47
2022-12-19T08:44:47.147Z,2.47
2022-12-19T08:47:15.205Z,2.47
2022-12-19T08:49:42.474Z,2.48
2022-12-19T08:52:09.693Z,2.54
2022-12-19T08:54:37.063Z,2.58
2022-12-19T08:57:04.260Z,2.46
2022-12-19T08:59:32.230Z,2.81
2022-12-19T09:02:00.768Z,2.88
2022-12-19T09:06:00.117Z,2.97
2022-12-19T09:07:16.268Z,2.94
2022-12-19T09:09:45.383Z,2.96
2022-12-19T09:12:14.347Z,2.98
2022-12-19T09:14:41.487Z,2.91
2022-12-19T09:17:09.246Z,2.91
2022-12-19T09:19:37.632Z,2.94
2022-12-19T09:22:05.243Z,3.04
2022-12-19T09:24:32.213Z,3.10
2022-12-19T09:26:59.331Z,3.19
2022-12-19T09:29:28.705Z,3.41
2022-12-19T09:31:59.401Z,3.31
2022-12-19T09:34:38.196Z,3.46
2022-12-19T09:37:16.473Z,3.38
2022-12-19T09:39:48.322Z,3.52
2022-12-19T09:42:23.629Z,3.71
2022-12-19T09:45:21.500Z,3.72
2022-12-19T09:48:00.209Z,3.65
2022-12-19T09:50:39.415Z,3.86
2022-12-19T09:53:18.219Z,3.80
2022-12-19T09:55:47.963Z,3.97
2022-12-19T09:58:41.232Z,4.10
2022-12-19T10:01:19.470Z,3.97
2022-12-19T10:04:13.100Z,3.92
2022-12-19T10:07:14.444Z,4.13
2022-12-19T10:11:13.281Z,4.21
2022-12-19T10:12:51.171Z,4.20
2022-12-19T10:15:43.189Z,4.03
2022-12-19T10:18:35.203Z,4.38
2022-12-19T10:25:38.245Z,4.28
2022-12-19T10:28:33.357Z,4.41
2022-12-19T10:31:21.930Z,4.44
2022-12-19T10:34:08.702Z,4.40
2022-12-19T10:39:54.324Z,4.42
2022-12-19T10:42:34.452Z,4.40
2022-12-19T10:45:10.517Z,4.25
2022-12-19T10:47:37.805Z,4.05
2022-12-19T10:50:09.596Z,4.37
2022-12-19T10:52:53.154Z,4.45
2022-12-19T10:55:40.155Z,4.37
2022-12-19T10:58:21.671Z,4.50
2022-12-19T11:00:57.834Z,4.52
2022-12-19T11:03:25.218Z,4.53
2022-12-19T11:05:58.540Z,4.37
2022-12-19T11:08:27.404Z,4.39
2022-12-19T11:12:13.840Z,4.47
2022-12-19T11:19:13.509Z,4.33
2022-12-19T11:23:32.415Z,4.45
2022-12-19T11:23:34.064Z,4.43
2022-12-19T11:29:33.109Z,4.51
2022-12-19T11:29:47.130Z,4.43
2022-12-19T11:30:37.982Z,4.21
2022-12-19T11:32:14.115Z,4.28
2022-12-19T11:34:24.689Z,4.54
2022-12-19T11:37:08.246Z,4.54
2022-12-19T11:39:57.576Z,4.60
2022-12-19T11:42:34.345Z,4.64
2022-12-19T11:45:31.874Z,4.63
2022-12-19T11:48:08.889Z,4.64
2022-12-19T11:50:43.624Z,4.53
2022-12-19T11:53:16.816Z,4.81
2022-12-19T11:55:56.668Z,4.81
2022-12-19T11:58:28.816Z,4.75
2022-12-19T12:01:18.104Z,4.69
2022-12-19T12:04:04.134Z,4.81
2022-12-19T12:06:44.258Z,4.79
2022-12-19T12:11:22.035Z,4.83
2022-12-19T12:21:58.270Z,4.86
2022-12-19T12:31:00.548Z,4.86
2022-12-19T12:31:16.503Z,4.77
2022-12-19T12:31:22.293Z,4.75
2022-12-19T12:31:28.656Z,4.79
2022-12-19T12:31:43.771Z,4.82
2022-12-19T12:31:45.495Z,4.79
2022-12-19T12:35:29.220Z,4.77
2022-12-19T12:38:14.223Z,4.72
2022-12-19T12:40:40.047Z,4.72
2022-12-19T12:43:38.120Z,4.77
2022-12-19T12:46:08.708Z,4.78
2022-12-19T12:48:48.059Z,4.78
2022-12-19T12:51:16.271Z,4.69
2022-12-19T12:53:45.733Z,4.60
2022-12-19T12:56:16.655Z,4.56
2022-12-19T12:58:46.893Z,4.52
2022-12-19T13:01:30.225Z,4.51
2022-12-19T13:04:12.737Z,4.62
2022-12-19T13:07:00.666Z,4.71
2022-12-19T13:09:31.213Z,4.72
2022-12-19T13:12:33.886Z,4.71
2022-12-19T13:15:27.311Z,4.71
2022-12-19T13:17:54.361Z,4.62
2022-12-19T13:20:24.858Z,4.62
2022-12-19T13:22:58.275Z,4.57
2022-12-19T13:25:34.632Z,4.62
2022-12-19T13:28:01.616Z,4.64
2022-12-19T13:30:30.848Z,4.63
2022-12-19T13:33:00.989Z,4.65
2022-12-19T13:36:48.494Z,4.66
2022-12-19T13:40:00.636Z,4.61
2022-12-19T13:41:48.420Z,4.59
2022-12-19T13:44:21.679Z,4.61
2022-12-19T13:46:50.070Z,4.49
2022-12-19T13:49:30.454Z,4.70
2022-12-19T13:52:00.959Z,4.70
2022-12-19T13:54:36.595Z,4.69
2022-12-19T13:57:09.172Z,4.80
2022-12-19T13:59:40.407Z,4.74
2022-12-19T14:02:29.925Z,4.77
2022-12-19T14:04:57.596Z,4.69
2022-12-19T14:07:42.165Z,4.41
2022-12-19T14:11:27.639Z,4.37
2022-12-19T14:14:00.504Z,4.72
2022-12-19T14:16:18.536Z,4.65
2022-12-19T14:18:50.454Z,4.60
2022-12-19T14:22:05.621Z,4.69
2022-12-19T14:24:40.015Z,4.69
2022-12-19T14:28:18.861Z,4.65
2022-12-19T14:30:27.815Z,4.67
2022-12-19T14:33:39.458Z,4.65
2022-12-19T14:36:08.840Z,4.51
2022-12-19T14:39:22.086Z,4.54
2022-12-19T14:41:45.741Z,4.57
2022-12-19T14:52:35.041Z,4.49
2022-12-19T14:53:34.273Z,4.53
2022-12-19T14:54:17.639Z,4.51
2022-12-19T14:54:28.280Z,4.29
2022-12-19T14:56:53.738Z,4.34
2022-12-19T14:59:27.333Z,4.46
2022-12-19T15:02:07.775Z,4.45
2022-12-19T15:05:00.503Z,4.32
2022-12-19T15:07:30.045Z,4.36
2022-12-19T15:11:04.268Z,4.33
2022-12-19T15:14:48.068Z,4.26
2022-12-19T15:16:07.578Z,4.05
2022-12-19T15:18:40.403Z,4.09
2022-12-19T15:21:14.769Z,4.06
2022-12-19T15:23:45.132Z,3.96
2022-12-19T15:26:15.382Z,4.00
2022-12-19T15:28:47.646Z,3.93
2022-12-19T15:31:35.673Z,3.91
2022-12-19T15:34:46.321Z,3.84
2022-12-19T15:37:12.992Z,3.81
2022-12-19T15:39:40.938Z,3.72
2022-12-19T15:42:21.719Z,3.64
2022-12-19T15:44:49.867Z,3.71
2022-12-19T15:47:33.136Z,3.66
2022-12-19T15:50:20.312Z,3.51
2022-12-19T15:52:47.404Z,3.65
2022-12-19T15:55:20.020Z,3.65
2022-12-19T15:57:52.071Z,3.63
2022-12-19T16:00:23.713Z,3.51
2022-12-19T16:05:40.400Z,3.55
2022-12-19T16:08:19.497Z,3.39
2022-12-19T16:11:01.161Z,3.24
2022-12-19T16:13:35.347Z,3.35
2022-12-19T16:16:09.262Z,3.32
2022-12-19T16:18:42.675Z,3.41
2022-12-19T16:21:19.818Z,3.44
2022-12-19T16:23:47.355Z,3.38
2022-12-19T16:27:00.459Z,3.38
2022-12-19T16:29:29.800Z,3.09
2022-12-19T16:31:57.625Z,3.33
2022-12-19T16:34:25.090Z,3.31
2022-12-19T16:36:55.017Z,3.21
2022-12-19T16:39:27.090Z,3.08
2022-12-19T16:41:54.106Z,3.11
2022-12-19T16:44:23.087Z,3.25
2022-12-19T16:46:51.715Z,3.23
2022-12-19T16:49:24.720Z,3.24
2022-12-19T16:51:52.370Z,3.12
2022-12-19T16:54:20.363Z,3.02
2022-12-19T16:56:49.883Z,3.19
2022-12-19T16:59:20.578Z,3.18
2022-12-19T17:01:48.730Z,3.22
2022-12-19T17:04:19.609Z,3.21
2022-12-19T17:06:46.793Z,3.11
2022-12-19T17:09:15.922Z,3.17
2022-12-19T17:12:01.916Z,3.16
2022-12-19T17:14:32.118Z,3.16
2022-12-19T17:16:59.754Z,3.16
2022-12-19T17:19:47.254Z,3.19
2022-12-19T17:22:16.438Z,3.15
2022-12-19T17:24:46.615Z,3.21
2022-12-19T17:27:14.162Z,3.22
2022-12-19T17:29:42.036Z,3.08
2022-12-19T17:32:23.210Z,3.20
2022-12-19T17:34:51.998Z,3.20
2022-12-19T17:37:18.873Z,3.15
2022-12-19T17:39:46.045Z,3.21
2022-12-19T17:42:24.583Z,3.27
2022-12-19T17:44:52.110Z,3.25
2022-12-19T17:47:21.072Z,3.17
2022-12-19T17:49:48.977Z,3.15
2022-12-19T17:52:18.419Z,3.22
2022-12-19T17:54:51.496Z,2.94
2022-12-19T17:57:26.909Z,3.23
2022-12-19T17:59:53.959Z,3.12
2022-12-19T18:02:27.586Z,3.17
2022-12-19T18:04:54.745Z,3.19
2022-12-19T18:07:21.775Z,3.17
2022-12-19T18:09:48.736Z,3.13
2022-12-19T18:12:16.018Z,3.15
2022-12-19T18:14:43.098Z,3.28
2022-12-19T18:17:21.250Z,3.25
2022-12-19T18:19:48.253Z,3.22
2022-12-19T18:22:15.312Z,3.17
2022-12-19T18:24:42.597Z,3.24
2022-12-19T18:27:09.531Z,3.11
2022-12-19T18:29:37.175Z,3.29
2022-12-19T18:32:04.558Z,3.28
2022-12-19T18:34:33.402Z,3.13
2022-12-19T18:37:01.119Z,3.15
2022-12-19T18:39:29.468Z,2.92
2022-12-19T18:41:56.821Z,3.09
2022-12-19T18:44:23.958Z,3.15
2022-12-19T18:46:52.745Z,2.76
2022-12-19T18:49:20.213Z,3.22
2022-12-19T18:51:47.379Z,3.12
2022-12-19T18:54:20.315Z,3.05
2022-12-19T18:56:47.979Z,3.09
2022-12-19T18:59:15.186Z,3.06
2022-12-19T19:01:46.935Z,3.13
2022-12-19T19:04:18.025Z,3.12
2022-12-19T19:06:51.536Z,3.14
2022-12-19T19:09:21.329Z,3.18
2022-12-19T19:12:14.264Z,3.18
2022-12-19T19:14:42.019Z,3.18
2022-12-19T19:17:24.038Z,3.16
2022-12-19T19:19:52.131Z,2.87
2022-12-19T19:22:19.433Z,3.14
2022-12-19T19:24:46.410Z,3.03
2022-12-19T19:27:13.511Z,2.85
2022-12-19T19:29:40.643Z,3.14
2022-12-19T19:32:07.866Z,3.14
2022-12-19T19:34:40.442Z,3.11
2022-12-19T19:37:10.873Z,3.03
2022-12-19T19:39:38.112Z,3.11
2022-12-19T19:42:05.815Z,3.01
2022-12-19T19:44:33.132Z,3.03
2022-12-19T19:47:00.451Z,3.10
2022-12-19T19:49:28.093Z,2.98
2022-12-19T19:52:02.001Z,3.09
2022-12-19T19:54:29.843Z,2.86
2022-12-19T19:56:56.749Z,3.05
2022-12-19T19:59:23.766Z,3.07
2022-12-19T20:01:54.540Z,2.87
2022-12-19T20:04:23.068Z,2.96
2022-12-19T20:06:50.101Z,2.99
2022-12-19T20:09:17.401Z,2.66
2022-12-19T20:11:45.037Z,2.83
2022-12-19T20:14:12.162Z,2.77
2022-12-19T20:16:39.208Z,2.85
2022-12-19T20:19:06.888Z,2.87
2022-12-19T20:21:33.865Z,2.79
2022-12-19T20:24:00.976Z,2.81
2022-12-19T20:26:28.031Z,2.78
2022-12-19T20:28:55.608Z,2.74
2022-12-19T20:31:24.055Z,2.42
2022-12-19T20:33:53.193Z,2.59
2022-12-19T20:36:21.819Z,2.62
2022-12-19T20:38:49.449Z,2.62
2022-12-19T20:41:17.080Z,2.52
2022-12-19T20:43:45.618Z,2.45
2022-12-19T20:46:18.267Z,2.38
2022-12-19T20:48:47.217Z,2.32
2022-12-19T20:51:15.623Z,2.30
2022-12-19T20:53:43.254Z,2.31
2022-12-19T20:56:14.406Z,2.33
2022-12-19T20:58:41.805Z,1.85
2022-12-19T21:01:15.601Z,2.24
2022-12-19T21:03:43.452Z,2.18
2022-12-19T21:06:12.710Z,2.17
2022-12-19T21:08:40.591Z,2.14
2022-12-19T21:11:09.054Z,2.11
2022-12-19T21:13:37.679Z,2.06
2022-12-19T21:16:10.239Z,2.12
2022-12-19T21:18:39.258Z,2.11
2022-12-19T21:21:08.826Z,2.06
2022-12-19T21:23:35.902Z,2.06
2022-12-19T21:26:04.656Z,2.04
2022-12-19T21:28:32.720Z,1.96
2022-12-19T21:31:27.390Z,2.02
2022-12-19T21:33:56.961Z,2.05
2022-12-19T21:36:25.778Z,1.77
2022-12-19T21:38:56.335Z,2.02
2022-12-19T21:41:23.362Z,2.00
2022-12-19T21:43:53.513Z,1.96
2022-12-19T21:46:23.736Z,1.97
2022-12-19T21:48:52.560Z,1.97
2022-12-19T21:51:21.795Z,1.87
2022-12-19T21:53:52.686Z,1.93
2022-12-19T21:56:19.617Z,1.85
2022-12-19T21:58:46.553Z,1.73
2022-12-19T22:01:14.374Z,1.86
2022-12-19T22:03:41.658Z,1.81
2022-12-19T22:06:15.865Z,1.78
2022-12-19T22:08:44.499Z,1.71
2022-12-19T22:11:14.614Z,1.60
2022-12-19T22:13:43.940Z,1.64
2022-12-19T22:16:12.020Z,1.70
2022-12-19T22:18:39.939Z,1.60
2022-12-19T22:21:09.340Z,1.37
2022-12-19T22:23:37.083Z,1.53
2022-12-19T22:26:14.303Z,1.48
2022-12-19T22:28:44.687Z,1.48
2022-12-19T22:31:21.195Z,1.50
2022-12-19T22:33:50.205Z,1.46
2022-12-19T22:36:23.931Z,1.42
2022-12-19T22:38:54.803Z,1.18
2022-12-19T22:41:22.025Z,1.36
2022-12-19T22:43:49.164Z,1.22
2022-12-19T22:46:17.909Z,1.18
2022-12-19T22:48:46.602Z,1.28
2022-12-19T22:51:15.123Z,0.88
2022-12-19T22:53:42.565Z,1.10
2022-12-19T22:56:16.627Z,1.03
2022-12-19T22:58:46.547Z,1.16
2022-12-19T23:01:20.588Z,0.75
2022-12-19T23:03:54.186Z,1.01
2022-12-19T23:06:22.678Z,1.01
2022-12-19T23:08:50.414Z,0.98
2022-12-19T23:11:21.801Z,0.60
2022-12-19T23:13:50.005Z,0.81
2022-12-19T23:16:17.263Z,0.81
2022-12-19T23:18:44.804Z,0.82
2022-12-19T23:21:18.176Z,0.67
2022-12-19T23:23:47.776Z,0.62
2022-12-19T23:26:18.373Z,0.79
2022-12-19T23:28:51.374Z,0.62
2022-12-19T23:31:18.745Z,0.70
2022-12-19T23:33:45.891Z,0.56
2022-12-19T23:36:13.566Z,0.57
2022-12-19T23:38:42.233Z,0.60
2022-12-19T23:41:11.554Z,0.62
2022-12-19T23:43:39.449Z,0.63
2022-12-19T23:46:13.599Z,0.63
2022-12-19T23:48:41.843Z,0.05
2022-12-19T23:51:13.287Z,0.59
2022-12-19T23:53:40.493Z,0.52
2022-12-19T23:56:13.438Z,0.37
2022-12-19T23:58:41.198Z,0.57
